Time;durP1;ratioP1;P1;durP2;ratioP2;P2;SDS_P1;SDS_P2;PMS_P1;PMS_P2;Temp;Humidity;BMP_temperature;BMP_pressure;BME280_temperature;BME280_humidity;BME280_pressure;Samples;Min_cycle;Max_cycle;Signal;HPM_P1;HPM_P2
2022/01/06 00:01:54;;;;;;;8.65;4.03;;;3.60;99.90;;;;;;4902300;28;89648;-36
2022/01/06 00:04:19;;;;;;;12.30;3.85;;;3.50;99.90;;;;;;4902380;28;89027;-42
2022/01/06 00:06:45;;;;;;;7.15;2.80;;;3.40;99.90;;;;;;4902129;28;90434;-40
2022/01/06 00:09:15;;;;;;;11.95;4.35;;;3.40;99.90;;;;;;4900823;28;90552;-43
2022/01/06 00:11:41;;;;;;;16.10;3.72;;;3.30;99.90;;;;;;4901493;28;90293;-43
2022/01/06 00:24:47;;;;;;;10.52;3.53;;;3.20;99.90;;;;;;4902012;28;88701;-41
2022/01/06 00:27:13;;;;;;;17.40;4.13;;;3.20;99.90;;;;;;4902546;28;90620;-40
2022/01/06 00:29:39;;;;;;;15.73;3.25;;;3.20;99.90;;;;;;4901935;28;91484;-41
2022/01/06 00:32:05;;;;;;;10.77;3.28;;;3.10;99.90;;;;;;4901924;28;89782;-40
2022/01/06 00:34:30;;;;;;;11.77;3.25;;;3.10;99.90;;;;;;4901945;28;89440;-37
2022/01/06 00:36:56;;;;;;;11.23;3.47;;;3.10;99.90;;;;;;4903611;28;95956;-35
2022/01/06 00:39:27;;;;;;;11.13;4.10;;;3.00;99.90;;;;;;4905024;28;89185;-40
2022/01/06 00:41:55;;;;;;;14.30;4.28;;;3.00;99.90;;;;;;4905160;28;89550;-38
2022/01/06 00:44:21;;;;;;;12.65;3.67;;;3.00;99.90;;;;;;4905049;28;90385;-41
2022/01/06 00:46:46;;;;;;;13.40;3.95;;;3.00;99.90;;;;;;4905024;28;90499;-39
2022/01/06 00:49:13;;;;;;;16.55;4.93;;;2.90;99.90;;;;;;4905285;28;89560;-39
2022/01/06 00:51:38;;;;;;;8.20;3.70;;;2.90;99.90;;;;;;4904968;28;89997;-40
2022/01/06 00:54:04;;;;;;;14.40;4.63;;;2.90;99.90;;;;;;4904042;28;88768;-40
2022/01/06 00:56:29;;;;;;;10.90;2.95;;;2.90;99.90;;;;;;4904719;28;90364;-38
2022/01/06 00:58:55;;;;;;;6.07;3.17;;;2.90;99.90;;;;;;4904289;28;90939;-39
2022/01/06 01:01:21;;;;;;;14.15;3.35;;;2.90;99.90;;;;;;4904896;28;90370;-38
2022/01/06 01:03:46;;;;;;;16.02;4.95;;;3.10;99.90;;;;;;4904965;28;87920;-39
2022/01/06 01:06:12;;;;;;;10.52;4.00;;;3.40;99.90;;;;;;4904522;28;90184;-46
2022/01/06 01:08:38;;;;;;;12.35;4.07;;;3.40;99.90;;;;;;4904132;28;89718;-40
2022/01/06 01:11:04;;;;;;;7.35;3.88;;;3.40;99.90;;;;;;4903838;28;89860;-41
2022/01/06 01:13:32;;;;;;;7.82;2.90;;;3.40;99.90;;;;;;4904622;28;89596;-44
2022/01/06 01:16:08;;;;;;;9.37;3.37;;;3.40;99.90;;;;;;4905182;28;90375;-38
2022/01/06 01:18:34;;;;;;;14.48;4.03;;;3.30;99.90;;;;;;4903610;28;90175;-35
2022/01/06 01:20:59;;;;;;;13.88;3.50;;;3.30;99.90;;;;;;4903241;28;89945;-42
2022/01/06 01:23:25;;;;;;;18.40;3.72;;;3.20;99.90;;;;;;4901718;28;89020;-39
2022/01/06 01:25:51;;;;;;;11.57;3.85;;;3.10;99.90;;;;;;4902632;28;90623;-37
2022/01/06 01:28:17;;;;;;;11.27;3.63;;;3.10;99.90;;;;;;4902839;28;89800;-40
2022/01/06 01:31:02;;;;;;;5.72;2.63;;;3.10;99.90;;;;;;4902131;28;89432;-38
2022/01/06 01:33:30;;;;;;;19.80;4.45;;;3.00;99.90;;;;;;4902405;28;88506;-39
2022/01/06 01:35:55;;;;;;;16.83;3.70;;;2.90;99.90;;;;;;4885077;28;90395;-42
2022/01/06 01:38:21;;;;;;;9.13;3.17;;;2.80;99.90;;;;;;4901808;28;90422;-39
2022/01/06 01:40:47;;;;;;;12.63;4.25;;;2.80;99.90;;;;;;4902737;28;89592;-41
2022/01/06 01:43:12;;;;;;;12.18;3.78;;;2.80;99.90;;;;;;4902285;28;89124;-40
2022/01/06 01:45:45;;;;;;;14.07;3.40;;;2.70;99.90;;;;;;4901888;28;90168;-41
2022/01/06 01:48:19;;;;;;;12.90;3.78;;;2.60;99.90;;;;;;4900664;28;91190;-39
2022/01/06 01:50:44;;;;;;;7.30;3.10;;;2.60;99.90;;;;;;4901741;28;90631;-40
2022/01/06 01:53:10;;;;;;;17.27;3.78;;;2.50;99.90;;;;;;4904015;28;87954;-40
2022/01/06 01:55:36;;;;;;;7.95;3.35;;;2.50;99.90;;;;;;4903454;28;91007;-43
2022/01/06 01:58:02;;;;;;;11.82;3.38;;;2.50;99.90;;;;;;4903958;28;90054;-36
2022/01/06 02:00:30;;;;;;;6.43;3.10;;;2.50;99.90;;;;;;4903373;28;90188;-35
2022/01/06 02:02:56;;;;;;;16.75;3.70;;;2.40;99.90;;;;;;4903970;28;89327;-36
2022/01/06 02:05:26;;;;;;;15.02;4.53;;;2.40;99.90;;;;;;4903836;28;90245;-36
2022/01/06 02:07:54;;;;;;;13.93;2.65;;;2.40;99.90;;;;;;4904173;28;90073;-37
2022/01/06 02:10:20;;;;;;;13.00;3.35;;;2.40;99.90;;;;;;4903306;28;89210;-41
2022/01/06 02:12:48;;;;;;;5.97;2.58;;;2.40;99.90;;;;;;4903330;28;90101;-46
2022/01/06 02:15:14;;;;;;;20.48;4.05;;;2.40;99.90;;;;;;4904089;28;88896;-43
2022/01/06 02:17:41;;;;;;;7.03;3.35;;;2.40;99.90;;;;;;4903567;28;89789;-42
2022/01/06 02:20:09;;;;;;;10.32;3.42;;;2.40;99.90;;;;;;4902993;28;90423;-39
2022/01/06 02:22:35;;;;;;;;;;;2.30;99.90;;;;;;4904431;28;89280;-44
2022/01/06 02:25:16;;;;;;;22.98;3.85;;;2.30;99.90;;;;;;4905043;28;90116;-38
2022/01/06 02:27:44;;;;;;;14.30;3.90;;;2.30;99.90;;;;;;4904006;28;89909;-39
2022/01/06 02:30:11;;;;;;;9.57;3.67;;;2.30;99.90;;;;;;4904444;28;89542;-39
2022/01/06 02:32:37;;;;;;;10.45;3.20;;;2.20;99.90;;;;;;4903250;28;87508;-37
2022/01/06 02:35:09;;;;;;;19.38;3.65;;;2.20;99.90;;;;;;4902939;28;90232;-41
2022/01/06 02:37:35;;;;;;;12.07;4.32;;;2.20;99.90;;;;;;4902753;28;90795;-37
2022/01/06 02:40:01;;;;;;;11.77;3.90;;;2.20;99.90;;;;;;4903703;28;90925;-36
2022/01/06 02:42:28;;;;;;;10.30;2.63;;;2.10;99.90;;;;;;4903034;28;89352;-37
2022/01/06 02:44:54;;;;;;;14.80;3.33;;;2.10;99.90;;;;;;4902854;28;90411;-36
2022/01/06 02:47:19;;;;;;;18.65;4.15;;;2.00;99.90;;;;;;4903354;28;89916;-41
2022/01/06 02:49:45;;;;;;;16.95;3.88;;;1.90;99.90;;;;;;4902659;28;89866;-38
2022/01/06 02:52:10;;;;;;;8.70;3.10;;;1.90;99.90;;;;;;4903443;28;89106;-42
2022/01/06 02:54:36;;;;;;;11.60;3.13;;;1.90;99.90;;;;;;4902721;28;90030;-38
2022/01/06 02:57:03;;;;;;;8.80;3.17;;;1.80;99.90;;;;;;4902832;28;89804;-37
2022/01/06 02:59:28;;;;;;;8.73;2.90;;;1.80;99.90;;;;;;4903046;28;89729;-43
2022/01/06 03:01:54;;;;;;;12.95;3.90;;;1.80;99.90;;;;;;4902729;28;89940;-38
2022/01/06 03:04:20;;;;;;;14.32;3.67;;;1.80;99.90;;;;;;4902928;28;89575;-46
2022/01/06 03:06:46;;;;;;;19.67;4.00;;;1.80;99.90;;;;;;4903676;28;89302;-36
2022/01/06 03:09:12;;;;;;;10.10;3.47;;;1.80;99.90;;;;;;4902521;28;89322;-42
2022/01/06 03:11:42;;;;;;;8.45;3.67;;;1.80;99.90;;;;;;4902896;28;90305;-43
2022/01/06 03:14:08;;;;;;;19.02;3.78;;;1.80;99.90;;;;;;4903004;28;90147;-40
2022/01/06 03:16:33;;;;;;;9.30;3.92;;;1.80;99.90;;;;;;4902581;28;91207;-42
2022/01/06 03:18:59;;;;;;;16.33;3.53;;;1.80;99.90;;;;;;4902704;28;90088;-40
2022/01/06 03:21:25;;;;;;;6.20;3.33;;;1.80;99.90;;;;;;4903009;28;89406;-39
2022/01/06 03:23:50;;;;;;;10.43;4.28;;;1.80;99.90;;;;;;4902329;28;90425;-38
2022/01/06 03:26:16;;;;;;;15.30;3.45;;;1.80;99.90;;;;;;4902057;28;90608;-43
2022/01/06 03:28:41;;;;;;;19.67;4.28;;;1.80;99.90;;;;;;4902443;28;90509;-33
2022/01/06 03:31:07;;;;;;;13.38;3.30;;;1.90;99.90;;;;;;4903413;28;89243;-40
2022/01/06 03:33:32;;;;;;;10.98;3.22;;;1.90;99.90;;;;;;4901417;28;90055;-43
2022/01/06 03:35:58;;;;;;;7.57;3.13;;;1.90;99.90;;;;;;4902313;28;89998;-46
2022/01/06 03:38:23;;;;;;;18.73;4.43;;;2.00;99.90;;;;;;4902503;28;89768;-43
2022/01/06 03:40:49;;;;;;;12.05;3.33;;;2.00;99.90;;;;;;4902217;28;89292;-42
2022/01/06 03:43:14;;;;;;;17.02;4.32;;;1.90;99.90;;;;;;4902501;28;90107;-37
2022/01/06 03:45:40;;;;;;;10.38;3.35;;;1.90;99.90;;;;;;4902314;28;88584;-37
2022/01/06 03:48:06;;;;;;;9.93;3.50;;;1.90;99.90;;;;;;4902410;28;89472;-43
2022/01/06 03:50:32;;;;;;;10.75;4.82;;;2.00;99.90;;;;;;4901961;28;89327;-39
2022/01/06 03:52:58;;;;;;;13.15;3.92;;;1.90;99.90;;;;;;4902032;28;90241;-35
2022/01/06 03:55:23;;;;;;;14.35;4.40;;;2.00;99.90;;;;;;4901911;28;89358;-34
2022/01/06 03:57:50;;;;;;;20.42;4.88;;;1.90;99.90;;;;;;4901912;28;89578;-37
2022/01/06 04:00:19;;;;;;;9.82;3.72;;;1.90;99.90;;;;;;4902457;28;89178;-42
2022/01/06 04:02:45;;;;;;;13.98;4.25;;;1.90;99.90;;;;;;4902505;28;91037;-37
2022/01/06 04:05:12;;;;;;;12.95;3.72;;;1.80;99.90;;;;;;4901620;28;91223;-40
2022/01/06 04:07:39;;;;;;;12.90;3.58;;;1.80;99.90;;;;;;4901942;28;88917;-36
2022/01/06 04:10:06;;;;;;;11.80;3.08;;;1.80;99.90;;;;;;4902483;28;89549;-41
2022/01/06 04:12:36;;;;;;;13.30;4.07;;;1.80;99.90;;;;;;4904959;28;90249;-41
2022/01/06 04:15:03;;;;;;;12.75;2.90;;;1.80;99.90;;;;;;4904614;28;91183;-41
2022/01/06 04:17:29;;;;;;;12.83;4.10;;;1.70;99.90;;;;;;4905018;28;90401;-39
2022/01/06 04:19:54;;;;;;;10.07;4.60;;;1.70;99.90;;;;;;4906236;28;89628;-38
2022/01/06 04:22:20;;;;;;;18.90;4.05;;;1.70;99.90;;;;;;4905005;28;90085;-38
2022/01/06 04:24:46;;;;;;;10.52;3.75;;;1.70;99.90;;;;;;4905580;28;89989;-40
2022/01/06 04:27:11;;;;;;;15.80;3.67;;;1.70;99.90;;;;;;4905393;28;88554;-36
2022/01/06 04:29:37;;;;;;;9.40;4.30;;;1.60;99.90;;;;;;4905071;28;89202;-36
2022/01/06 04:32:03;;;;;;;18.95;4.60;;;1.60;99.90;;;;;;4899861;28;88781;-36
2022/01/06 04:34:29;;;;;;;20.60;3.60;;;1.50;99.90;;;;;;4901574;28;89775;-38
2022/01/06 04:36:57;;;;;;;12.55;3.58;;;1.50;99.90;;;;;;4904739;28;89528;-36
2022/01/06 04:39:23;;;;;;;13.73;4.32;;;1.50;99.90;;;;;;4903538;28;89974;-39
2022/01/06 04:41:48;;;;;;;10.73;3.55;;;1.40;99.90;;;;;;4901773;28;92331;-37
2022/01/06 04:44:14;;;;;;;9.15;3.42;;;1.40;99.90;;;;;;4902729;28;89601;-38
2022/01/06 04:46:40;;;;;;;9.73;3.97;;;1.40;99.90;;;;;;4903421;28;89391;-40
2022/01/06 04:49:06;;;;;;;9.23;3.22;;;1.30;99.90;;;;;;4904758;28;89802;-38
2022/01/06 04:51:31;;;;;;;14.85;3.40;;;1.30;99.90;;;;;;4905221;28;91162;-38
2022/01/06 04:53:57;;;;;;;13.82;3.72;;;1.20;99.90;;;;;;4903782;28;89723;-39
2022/01/06 04:56:23;;;;;;;9.27;3.05;;;1.20;99.90;;;;;;4904014;28;90307;-44
2022/01/06 04:58:49;;;;;;;15.35;3.75;;;1.10;99.90;;;;;;4887221;28;89094;-37
2022/01/06 05:01:15;;;;;;;9.80;2.67;;;1.10;99.90;;;;;;4903182;28;90566;-41
2022/01/06 05:03:40;;;;;;;7.60;2.92;;;1.10;99.90;;;;;;4904530;28;90712;-39
2022/01/06 05:06:06;;;;;;;13.85;4.13;;;1.10;99.90;;;;;;4904092;28;90233;-36
2022/01/06 05:08:32;;;;;;;15.02;3.33;;;1.10;99.90;;;;;;4903685;28;90447;-37
2022/01/06 05:10:57;;;;;;;11.98;3.25;;;1.10;99.90;;;;;;4904508;28;90332;-37
2022/01/06 05:13:23;;;;;;;7.82;3.42;;;1.00;99.90;;;;;;4902636;28;89968;-39
2022/01/06 05:15:48;;;;;;;11.60;4.35;;;1.00;99.90;;;;;;4903045;28;89618;-37
2022/01/06 05:18:14;;;;;;;13.32;3.42;;;1.00;99.90;;;;;;4901898;28;88719;-43
2022/01/06 05:20:42;;;;;;;9.65;3.28;;;0.90;99.90;;;;;;4902713;28;90926;-38
2022/01/06 05:23:09;;;;;;;14.02;3.47;;;0.90;99.90;;;;;;4899920;28;89670;-38
2022/01/06 05:25:35;;;;;;;23.40;4.10;;;0.90;99.90;;;;;;4902559;28;89648;-41
2022/01/06 05:28:01;;;;;;;11.70;3.42;;;0.90;99.90;;;;;;4895022;28;89297;-44
2022/01/06 05:30:26;;;;;;;15.90;3.13;;;0.90;99.90;;;;;;4902438;28;90354;-40
2022/01/06 05:32:52;;;;;;;17.98;3.97;;;0.90;99.90;;;;;;4904437;28;89879;-46
2022/01/06 05:35:18;;;;;;;16.90;3.78;;;0.90;99.90;;;;;;4903913;28;89526;-36
2022/01/06 05:37:44;;;;;;;9.95;4.18;;;0.80;99.90;;;;;;4904381;28;89038;-41
2022/01/06 05:40:10;;;;;;;17.98;3.83;;;0.80;99.90;;;;;;4904212;28;89983;-41
2022/01/06 05:42:36;;;;;;;8.40;3.20;;;0.80;99.90;;;;;;4903779;28;89841;-40
2022/01/06 05:45:02;;;;;;;10.30;3.67;;;0.70;99.90;;;;;;4903384;28;90169;-43
2022/01/06 05:47:28;;;;;;;17.65;3.78;;;0.70;99.90;;;;;;4904239;28;88038;-38
2022/01/06 05:49:53;;;;;;;13.50;3.75;;;0.60;99.90;;;;;;4902263;28;90389;-42
2022/01/06 05:52:19;;;;;;;13.85;3.53;;;0.60;99.90;;;;;;4902054;28;90650;-39
2022/01/06 05:54:44;;;;;;;17.38;3.58;;;0.60;99.90;;;;;;4901329;28;91312;-39
2022/01/06 05:57:11;;;;;;;14.95;4.07;;;0.60;99.90;;;;;;4903109;28;88315;-41
2022/01/06 05:59:37;;;;;;;8.30;3.45;;;0.60;99.90;;;;;;4903172;28;90463;-40
2022/01/06 06:02:03;;;;;;;15.95;4.50;;;0.70;99.90;;;;;;4902995;28;90105;-41
2022/01/06 06:04:28;;;;;;;21.02;4.53;;;0.70;99.90;;;;;;4904069;28;89708;-38
2022/01/06 06:06:54;;;;;;;16.48;3.90;;;0.70;99.90;;;;;;4904073;28;89515;-37
2022/01/06 06:09:20;;;;;;;10.07;3.42;;;0.70;99.90;;;;;;4903456;28;90357;-38
2022/01/06 06:11:45;;;;;;;8.65;3.70;;;0.70;99.90;;;;;;4904282;28;89598;-34
2022/01/06 06:14:11;;;;;;;13.20;3.88;;;0.70;99.90;;;;;;4903528;28;89537;-35
2022/01/06 06:16:36;;;;;;;8.57;3.85;;;0.70;99.90;;;;;;4903949;28;89402;-38
2022/01/06 06:19:02;;;;;;;14.68;4.15;;;0.70;99.90;;;;;;4903142;28;91650;-38
2022/01/06 06:21:27;;;;;;;20.80;3.63;;;0.70;99.90;;;;;;4903696;28;90801;-35
2022/01/06 06:23:53;;;;;;;10.38;4.43;;;0.80;99.90;;;;;;4886426;28;89556;-40
2022/01/06 06:26:19;;;;;;;11.90;3.35;;;0.70;99.90;;;;;;4903766;28;90469;-41
2022/01/06 06:28:44;;;;;;;13.25;4.07;;;0.70;99.90;;;;;;4903856;28;90352;-35
2022/01/06 06:31:10;;;;;;;14.50;3.90;;;0.70;99.90;;;;;;4905314;28;88651;-39
2022/01/06 06:33:36;;;;;;;14.90;3.92;;;0.70;99.90;;;;;;4905108;28;90463;-37
2022/01/06 06:36:02;;;;;;;16.08;3.60;;;0.60;99.90;;;;;;4903335;28;89435;-40
2022/01/06 06:38:27;;;;;;;20.10;4.43;;;0.60;99.90;;;;;;4903028;28;89796;-47
2022/01/06 06:40:53;;;;;;;17.48;4.45;;;0.60;99.90;;;;;;4902820;28;90546;-39
2022/01/06 06:43:18;;;;;;;18.33;3.63;;;0.50;99.90;;;;;;4902899;28;90429;-45
2022/01/06 06:45:44;;;;;;;8.27;3.50;;;0.50;99.90;;;;;;4903766;28;88850;-37
2022/01/06 06:48:11;;;;;;;11.30;3.25;;;0.50;99.90;;;;;;4903192;28;90126;-37
2022/01/06 06:50:36;;;;;;;11.52;3.72;;;0.50;99.90;;;;;;4902885;28;89195;-45
2022/01/06 06:53:02;;;;;;;17.08;4.50;;;0.50;99.90;;;;;;4903097;28;90528;-37
2022/01/06 06:55:29;;;;;;;20.50;5.50;;;0.50;99.90;;;;;;4902638;28;88469;-43
2022/01/06 06:57:55;;;;;;;13.43;4.45;;;0.50;99.90;;;;;;4903240;28;90317;-35
2022/01/06 07:00:20;;;;;;;11.80;3.42;;;0.50;99.90;;;;;;4902603;28;89849;-36
2022/01/06 07:02:46;;;;;;;17.10;4.90;;;0.60;99.90;;;;;;4903130;28;90310;-43
2022/01/06 07:05:12;;;;;;;11.38;3.95;;;0.50;99.90;;;;;;4902694;28;90564;-40
2022/01/06 07:07:37;;;;;;;18.83;4.95;;;0.60;99.90;;;;;;4902198;28;90744;-41
2022/01/06 07:10:04;;;;;;;18.85;4.13;;;0.60;99.90;;;;;;4903281;28;89698;-35
2022/01/06 07:12:30;;;;;;;21.05;3.83;;;0.50;99.90;;;;;;4901786;28;90690;-38
2022/01/06 07:14:57;;;;;;;14.85;4.10;;;0.50;99.90;;;;;;4903141;28;88970;-36
2022/01/06 07:17:22;;;;;;;20.98;4.47;;;0.50;99.90;;;;;;4903369;28;90326;-40
2022/01/06 07:19:48;;;;;;;15.25;4.60;;;0.50;99.90;;;;;;4902145;28;89327;-40
2022/01/06 07:22:13;;;;;;;14.80;4.13;;;0.50;99.90;;;;;;4885909;28;89399;-43
2022/01/06 07:24:39;;;;;;;13.88;4.38;;;0.50;99.90;;;;;;4902264;28;89033;-35
2022/01/06 07:27:05;;;;;;;9.07;3.70;;;0.50;99.90;;;;;;4902345;28;90828;-43
2022/01/06 07:29:30;;;;;;;11.52;4.30;;;0.50;99.90;;;;;;4901824;28;90937;-35
2022/01/06 07:31:56;;;;;;;17.00;4.30;;;0.50;99.90;;;;;;4901986;28;89550;-42
2022/01/06 07:34:22;;;;;;;5.45;2.97;;;0.50;99.90;;;;;;4902847;28;89273;-39
2022/01/06 07:36:47;;;;;;;16.48;4.15;;;0.50;99.90;;;;;;4902332;28;89452;-37
2022/01/06 07:39:13;;;;;;;20.25;4.28;;;0.50;99.90;;;;;;4902750;28;89479;-39
2022/01/06 07:41:39;;;;;;;10.75;3.83;;;0.50;99.90;;;;;;4885497;28;89636;-38
2022/01/06 07:44:07;;;;;;;14.52;4.55;;;0.40;99.90;;;;;;4902485;28;87819;-37
2022/01/06 07:46:34;;;;;;;12.80;4.25;;;0.40;99.90;;;;;;4902424;28;89192;-43
2022/01/06 07:48:59;;;;;;;12.20;3.88;;;0.40;99.90;;;;;;4902577;28;90018;-41
2022/01/06 07:51:27;;;;;;;21.40;4.63;;;0.40;99.90;;;;;;4901539;28;89498;-42
2022/01/06 07:53:53;;;;;;;14.87;4.80;;;0.40;99.90;;;;;;4902052;28;88914;-39
2022/01/06 07:56:19;;;;;;;15.00;4.55;;;0.40;99.90;;;;;;4901506;28;90290;-40
2022/01/06 07:58:45;;;;;;;12.55;5.15;;;0.40;99.90;;;;;;4901829;28;90120;-39
2022/01/06 08:01:11;;;;;;;17.00;5.97;;;0.50;99.90;;;;;;4902471;28;89345;-38
2022/01/06 08:03:37;;;;;;;12.35;3.72;;;0.50;99.90;;;;;;4902114;28;89442;-40
2022/01/06 08:06:03;;;;;;;10.05;4.35;;;0.60;99.90;;;;;;4902570;28;89556;-37
2022/01/06 08:08:29;;;;;;;14.63;4.97;;;0.60;99.90;;;;;;4901588;28;90048;-37
2022/01/06 08:10:54;;;;;;;30.88;5.18;;;0.70;99.90;;;;;;4866410;28;88953;-41
2022/01/06 08:13:20;;;;;;;7.75;3.47;;;0.70;99.90;;;;;;4914736;28;87665;-43
2022/01/06 08:15:46;;;;;;;17.98;5.05;;;0.80;99.90;;;;;;4901365;28;91557;-40
2022/01/06 08:18:11;;;;;;;15.02;4.85;;;0.80;99.90;;;;;;4902206;28;89611;-41
2022/01/06 08:20:38;;;;;;;12.40;4.10;;;0.80;99.90;;;;;;4901940;28;90851;-40
2022/01/06 08:23:04;;;;;;;21.85;5.35;;;0.80;99.90;;;;;;4901766;28;88699;-41
2022/01/06 08:25:30;;;;;;;21.95;4.50;;;0.80;99.90;;;;;;4900616;28;90116;-43
2022/01/06 08:27:56;;;;;;;21.02;4.80;;;0.80;99.90;;;;;;4901494;28;89832;-43
2022/01/06 08:30:22;;;;;;;19.73;4.65;;;0.90;99.90;;;;;;4901761;28;90223;-35
2022/01/06 08:32:47;;;;;;;20.17;4.78;;;0.90;99.90;;;;;;4901847;28;88357;-43
2022/01/06 08:35:13;;;;;;;26.02;5.50;;;0.90;99.90;;;;;;4901480;28;90170;-36
2022/01/06 08:37:39;;;;;;;15.63;4.68;;;1.00;99.90;;;;;;4902306;28;90745;-38
2022/01/06 08:40:05;;;;;;;14.20;4.63;;;1.00;99.90;;;;;;4901744;28;88182;-33
2022/01/06 08:42:31;;;;;;;17.80;4.22;;;1.10;99.90;;;;;;4901377;28;89711;-37
2022/01/06 08:44:56;;;;;;;11.02;4.63;;;1.10;99.90;;;;;;4901549;28;90435;-36
2022/01/06 08:47:22;;;;;;;10.98;3.38;;;1.20;99.90;;;;;;4883790;28;90708;-38
2022/01/06 08:49:48;;;;;;;20.45;4.43;;;1.30;99.90;;;;;;4901461;28;89899;-39
2022/01/06 08:52:13;;;;;;;11.98;4.05;;;1.30;99.90;;;;;;4902441;28;89636;-45
2022/01/06 08:54:39;;;;;;;13.55;5.20;;;1.40;99.90;;;;;;4901553;28;91042;-40
2022/01/06 08:57:05;;;;;;;5.30;3.45;;;1.40;99.90;;;;;;4901926;28;89320;-37
2022/01/06 08:59:31;;;;;;;21.80;6.00;;;1.50;99.90;;;;;;4904138;28;89844;-42
2022/01/06 09:01:57;;;;;;;14.25;4.72;;;1.50;99.90;;;;;;4887879;28;89421;-39
2022/01/06 09:04:22;;;;;;;17.83;4.50;;;1.60;99.90;;;;;;4904228;28;90174;-35
2022/01/06 09:06:49;;;;;;;19.63;5.78;;;1.70;99.90;;;;;;4886105;28;91561;-42
2022/01/06 09:09:15;;;;;;;16.95;5.05;;;1.70;99.90;;;;;;4904004;28;89709;-39
2022/01/06 09:11:41;;;;;;;15.70;4.60;;;1.80;99.90;;;;;;4904843;28;88810;-39
2022/01/06 09:14:07;;;;;;;15.13;4.47;;;1.80;99.90;;;;;;4904357;28;90148;-43
2022/01/06 09:16:32;;;;;;;18.17;4.82;;;1.90;99.90;;;;;;4904011;28;89840;-37
2022/01/06 09:18:58;;;;;;;19.98;5.57;;;2.00;99.90;;;;;;4904521;28;89095;-40
2022/01/06 09:21:24;;;;;;;9.82;4.97;;;2.10;99.90;;;;;;4903929;28;89791;-33
2022/01/06 09:23:53;;;;;;;11.93;4.55;;;2.20;99.90;;;;;;4886728;28;90275;-44
2022/01/06 09:26:19;;;;;;;15.35;5.38;;;2.40;99.90;;;;;;4903776;28;89821;-37
2022/01/06 09:28:45;;;;;;;13.85;4.30;;;2.50;99.90;;;;;;4903633;28;89469;-37
2022/01/06 09:31:11;;;;;;;14.88;5.07;;;2.70;99.90;;;;;;4903640;28;88802;-36
2022/01/06 09:33:36;;;;;;;8.40;3.67;;;2.80;99.90;;;;;;4903579;28;89692;-39
2022/01/06 09:36:02;;;;;;;14.63;4.38;;;3.00;99.90;;;;;;4903562;28;90873;-40
2022/01/06 09:38:28;;;;;;;17.40;4.82;;;3.10;99.90;;;;;;4903643;28;89629;-39
2022/01/06 09:40:53;;;;;;;22.15;6.07;;;3.20;99.90;;;;;;4904995;28;89348;-33
2022/01/06 09:43:26;;;;;;;18.77;5.85;;;3.20;99.90;;;;;;4902328;28;90287;-38
2022/01/06 09:45:53;;;;;;;13.88;4.75;;;3.20;99.90;;;;;;4903512;28;89816;-43
2022/01/06 09:48:21;;;;;;;14.05;4.78;;;3.10;99.90;;;;;;4903039;28;89795;-37
2022/01/06 09:50:46;;;;;;;11.05;4.95;;;3.10;99.90;;;;;;4901830;28;88954;-35
2022/01/06 09:53:12;;;;;;;19.33;5.70;;;3.10;99.90;;;;;;4900737;28;90044;-36
2022/01/06 09:55:39;;;;;;;13.00;5.15;;;3.10;99.90;;;;;;4915410;28;92570;-41
2022/01/06 09:58:05;;;;;;;15.40;5.68;;;3.10;99.90;;;;;;4901971;28;91319;-36
2022/01/06 10:00:33;;;;;;;12.75;5.00;;;3.10;99.90;;;;;;4901551;28;89246;-40
2022/01/06 10:03:02;;;;;;;15.23;4.78;;;3.10;99.90;;;;;;4901547;28;90349;-37
2022/01/06 10:05:41;;;;;;;17.63;5.30;;;3.10;99.90;;;;;;4901169;28;90281;-41
2022/01/06 10:08:07;;;;;;;;;;;3.10;99.90;;;;;;4902415;28;89777;-36
2022/01/06 10:10:34;;;;;;;26.33;5.03;;;3.10;99.90;;;;;;4902625;28;87980;-43
2022/01/06 10:13:01;;;;;;;14.95;5.75;;;3.10;99.90;;;;;;4885802;28;92042;-39
2022/01/06 10:15:28;;;;;;;12.00;5.50;;;3.10;99.90;;;;;;4881753;28;90226;-43
2022/01/06 10:17:55;;;;;;;17.95;6.25;;;3.20;99.90;;;;;;4865285;28;92220;-35
2022/01/06 10:20:27;;;;;;;16.70;6.07;;;3.20;99.90;;;;;;4882176;28;89096;-40
2022/01/06 10:22:56;;;;;;;15.43;5.68;;;3.30;99.90;;;;;;4882551;28;90910;-39
2022/01/06 10:25:26;;;;;;;17.25;5.82;;;3.30;99.90;;;;;;4882072;28;90264;-39
2022/01/06 10:27:56;;;;;;;18.80;5.97;;;3.40;99.90;;;;;;4882276;28;90023;-44
2022/01/06 10:30:23;;;;;;;18.52;5.35;;;3.40;99.90;;;;;;4881990;28;89921;-41
2022/01/06 10:32:48;;;;;;;21.83;7.00;;;3.50;99.90;;;;;;4882729;28;90436;-46
2022/01/06 10:35:20;;;;;;;21.33;6.05;;;3.60;99.90;;;;;;4881709;28;90143;-38
2022/01/06 10:37:48;;;;;;;18.40;5.70;;;3.70;99.90;;;;;;4882507;28;90434;-40
2022/01/06 10:40:22;;;;;;;18.92;4.85;;;3.80;99.90;;;;;;4881875;28;89781;-45
2022/01/06 10:42:54;;;;;;;20.58;4.93;;;3.90;99.90;;;;;;4882469;28;90336;-41
2022/01/06 10:45:25;;;;;;;17.02;4.97;;;3.90;99.90;;;;;;4880867;28;91234;-34
2022/01/06 10:47:56;;;;;;;20.83;6.18;;;4.00;99.90;;;;;;4881901;28;90161;-39
2022/01/06 10:50:48;;;;;;;13.70;4.95;;;4.10;99.90;;;;;;4882047;28;89276;-38
2022/01/06 10:55:46;;;;;;;11.07;4.75;;;4.20;99.90;;;;;;4899672;28;89232;-37
2022/01/06 10:58:23;;;;;;;19.50;5.43;;;4.30;99.90;;;;;;4901328;28;89471;-40
2022/01/06 11:00:54;;;;;;;19.05;5.68;;;4.40;99.90;;;;;;4900568;28;89568;-36
2022/01/06 11:03:25;;;;;;;12.98;5.32;;;4.50;99.90;;;;;;4899186;28;90355;-41
2022/01/06 11:05:59;;;;;;;11.95;5.25;;;4.50;99.90;;;;;;4899486;28;90034;-39
2022/01/06 11:08:27;;;;;;;18.15;5.53;;;4.60;99.90;;;;;;4900441;28;89909;-38
2022/01/06 11:11:02;;;;;;;22.42;5.80;;;4.60;99.90;;;;;;4900605;28;89196;-33
2022/01/06 11:13:35;;;;;;;18.65;5.63;;;4.60;99.90;;;;;;4900780;28;90039;-38
2022/01/06 11:16:01;;;;;;;14.63;5.40;;;4.70;99.90;;;;;;4900444;28;90048;-41
2022/01/06 11:18:27;;;;;;;24.05;6.47;;;4.80;99.90;;;;;;4900617;28;90566;-38
2022/01/06 11:21:05;;;;;;;32.83;6.70;;;4.90;99.90;;;;;;4900271;28;87579;-39
2022/01/06 11:23:32;;;;;;;14.05;5.45;;;5.00;99.90;;;;;;4899932;28;90598;-42
2022/01/06 11:26:11;;;;;;;21.73;5.95;;;5.10;99.90;;;;;;4900797;28;89346;-39
2022/01/06 11:28:38;;;;;;;21.77;6.00;;;5.20;99.90;;;;;;4900673;28;89879;-38
2022/01/06 11:31:23;;;;;;;20.35;7.05;;;5.30;99.90;;;;;;4900541;28;89859;-37
2022/01/06 11:33:51;;;;;;;13.60;4.68;;;5.30;99.90;;;;;;4900674;28;90846;-44
2022/01/06 11:36:29;;;;;;;16.52;4.65;;;5.40;99.90;;;;;;4898585;28;90032;-44
2022/01/06 11:38:56;;;;;;;15.95;5.85;;;5.50;99.90;;;;;;4899348;28;90189;-41
2022/01/06 11:41:30;;;;;;;16.40;6.35;;;5.60;99.90;;;;;;4900173;28;89253;-38
2022/01/06 11:43:58;;;;;;;17.40;5.93;;;5.80;99.90;;;;;;4900256;28;90894;-35
2022/01/06 11:46:24;;;;;;;7.93;4.68;;;5.80;99.90;;;;;;4895275;28;89796;-37
2022/01/06 11:48:57;;;;;;;17.27;6.80;;;5.90;99.90;;;;;;4881441;28;90108;-37
2022/01/06 11:51:26;;;;;;;16.85;5.85;;;5.90;99.90;;;;;;4881431;28;89553;-38
2022/01/06 11:53:51;;;;;;;19.30;6.85;;;6.00;99.90;;;;;;4881077;28;91179;-38
2022/01/06 11:56:17;;;;;;;21.88;5.85;;;6.00;99.90;;;;;;4895305;28;88464;-39
2022/01/06 11:58:44;;;;;;;14.55;4.20;;;6.10;99.90;;;;;;4881215;28;90277;-46
2022/01/06 12:01:14;;;;;;;20.23;5.35;;;6.20;99.90;;;;;;4880487;28;90333;-39
2022/01/06 12:03:40;;;;;;;10.75;4.00;;;6.30;99.90;;;;;;4881298;28;88897;-35
2022/01/06 12:06:08;;;;;;;19.08;4.47;;;6.30;99.90;;;;;;4880488;28;88855;-37
2022/01/06 12:08:42;;;;;;;11.98;4.13;;;6.40;99.90;;;;;;4880569;28;89230;-36
2022/01/06 12:11:33;;;;;;;18.45;4.95;;;6.40;99.90;;;;;;4881114;28;88661;-44
2022/01/06 12:14:00;;;;;;;11.10;4.65;;;6.50;99.90;;;;;;4881294;28;90284;-42
2022/01/06 12:16:37;;;;;;;11.60;5.07;;;6.60;99.90;;;;;;4880962;28;89592;-36
2022/01/06 12:19:17;;;;;;;12.90;4.88;;;6.50;99.90;;;;;;4880741;28;89513;-42
2022/01/06 12:21:44;;;;;;;18.25;5.45;;;6.50;99.90;;;;;;4881038;28;89319;-38
2022/01/06 12:24:13;;;;;;;23.20;5.63;;;6.50;99.90;;;;;;4881149;28;90176;-38
2022/01/06 12:26:40;;;;;;;13.10;5.28;;;6.50;99.90;;;;;;4879935;28;90558;-36
2022/01/06 12:29:16;;;;;;;21.83;5.00;;;6.50;99.90;;;;;;4883327;28;89281;-34
2022/01/06 12:31:42;;;;;;;16.58;5.30;;;6.50;99.90;;;;;;4898952;28;89103;-42
2022/01/06 12:34:10;;;;;;;10.00;4.20;;;6.60;99.90;;;;;;4902735;28;90267;-39
2022/01/06 12:36:37;;;;;;;10.70;4.72;;;6.60;99.90;;;;;;4901028;28;89397;-36
2022/01/06 12:39:18;;;;;;;21.65;4.70;;;6.60;99.90;;;;;;4902490;28;90485;-41
2022/01/06 12:41:46;;;;;;;15.32;4.43;;;6.70;99.90;;;;;;4903053;28;88565;-40
2022/01/06 12:44:21;;;;;;;15.57;5.13;;;6.70;99.90;;;;;;4903513;28;89677;-39
2022/01/06 12:46:47;;;;;;;12.52;4.88;;;6.70;99.90;;;;;;4902409;28;89872;-35
2022/01/06 12:49:14;;;;;;;20.50;5.75;;;6.70;99.90;;;;;;4902556;28;89181;-39
2022/01/06 12:51:42;;;;;;;16.40;6.20;;;6.60;99.90;;;;;;4902341;28;88941;-36
2022/01/06 12:54:26;;;;;;;18.63;5.28;;;6.60;99.90;;;;;;4902434;28;89933;-35
2022/01/06 12:56:55;;;;;;;15.65;5.18;;;6.50;99.90;;;;;;4902475;28;90152;-39
2022/01/06 12:59:46;;;;;;;17.13;5.10;;;6.50;99.90;;;;;;4901965;28;89765;-40
2022/01/06 13:02:14;;;;;;;18.65;4.88;;;6.50;99.90;;;;;;4902564;28;89755;-38